Time;durP1;ratioP1;P1;durP2;ratioP2;P2;SDS_P1;SDS_P2;PMS_P1;PMS_P2;Temp;Humidity;BMP_temperature;BMP_pressure;BME280_temperature;BME280_humidity;BME280_pressure;Samples;Min_cycle;Max_cycle;Signal;HPM_P1;HPM_P2
2021/11/23 00:00:55;;;;;;;24.40;18.15;;;;;;;4.14;68.69;99522.55;1757907;81;20923;-63
2021/11/23 00:03:23;;;;;;;22.70;13.83;;;;;;;4.16;68.63;99530.31;1753769;81;20888;-64
2021/11/23 00:05:50;;;;;;;15.78;11.97;;;;;;;4.18;68.49;99534.48;1744868;81;21140;-63
2021/11/23 00:08:20;;;;;;;16.07;12.73;;;;;;;4.17;68.50;99535.44;1748185;81;20896;-64
2021/11/23 00:10:46;;;;;;;19.85;14.43;;;;;;;4.04;68.75;99535.30;1754116;81;21544;-64
2021/11/23 00:13:14;;;;;;;20.65;14.03;;;;;;;3.96;69.08;99533.78;1759940;81;22042;-63
2021/11/23 00:15:42;;;;;;;14.78;11.45;;;;;;;4.00;69.19;99528.59;1750684;81;20986;-63
2021/11/23 00:18:11;;;;;;;17.77;12.50;;;;;;;4.00;69.34;99524.17;1765874;81;21120;-62
2021/11/23 00:20:38;;;;;;;22.30;17.10;;;;;;;4.05;69.49;99525.09;1731363;81;20987;-63
2021/11/23 00:23:06;;;;;;;25.62;18.37;;;;;;;4.16;69.27;99521.09;1760888;81;20967;-63
2021/11/23 00:25:33;;;;;;;28.12;19.65;;;;;;;4.14;69.30;99517.28;1746499;81;21074;-63
2021/11/23 00:28:00;;;;;;;27.05;17.87;;;;;;;4.13;69.18;99520.87;1748751;81;21094;-62
2021/11/23 00:30:29;;;;;;;26.97;16.48;;;;;;;4.12;69.11;99521.82;1753293;81;21153;-62
2021/11/23 00:32:58;;;;;;;24.20;16.20;;;;;;;4.13;69.00;99531.41;1749468;81;21005;-64
2021/11/23 00:35:26;;;;;;;22.13;14.25;;;;;;;4.11;69.12;99533.33;1753152;81;21026;-63
2021/11/23 00:37:53;;;;;;;19.52;12.88;;;;;;;4.07;69.25;99531.91;1758434;81;20892;-61
2021/11/23 00:40:20;;;;;;;19.23;12.53;;;;;;;4.04;69.30;99533.98;1754409;81;20923;-62
2021/11/23 00:42:48;;;;;;;21.37;12.40;;;;;;;4.03;69.24;99533.61;1746607;81;21073;-61
2021/11/23 00:45:15;;;;;;;20.30;13.62;;;;;;;3.93;69.33;99537.97;1747770;81;20954;-62
2021/11/23 00:47:42;;;;;;;21.75;15.80;;;;;;;3.74;69.42;99530.75;1753318;81;20979;-61
2021/11/23 00:50:09;;;;;;;35.50;21.23;;;;;;;3.72;69.54;99532.21;1748852;81;21474;-63
2021/11/23 00:52:37;;;;;;;28.65;17.17;;;;;;;3.67;69.70;99533.06;1753293;81;20923;-62
2021/11/23 00:55:06;;;;;;;28.35;15.20;;;;;;;3.65;69.84;99531.02;1752878;81;21206;-62
2021/11/23 00:57:32;;;;;;;49.93;20.92;;;;;;;3.62;69.88;99534.41;1737191;81;20847;-64
2021/11/23 00:59:59;;;;;;;38.10;19.55;;;;;;;3.59;69.84;99534.64;1706025;82;21060;-62
2021/11/23 01:02:25;;;;;;;31.42;17.50;;;;;;;3.55;69.66;99536.68;1708031;83;20999;-64
2021/11/23 01:04:52;;;;;;;29.98;15.48;;;;;;;3.57;69.53;99537.89;1715151;83;20935;-62
2021/11/23 01:07:18;;;;;;;32.60;17.00;;;;;;;3.49;69.75;99537.20;1700808;83;21053;-63
2021/11/23 01:09:46;;;;;;;51.18;23.18;;;;;;;3.53;69.69;99542.55;1707457;83;21002;-63
2021/11/23 01:12:13;;;;;;;28.02;15.63;;;;;;;3.47;69.93;99536.46;1704164;83;21043;-62
2021/11/23 01:14:40;;;;;;;38.23;18.98;;;;;;;3.48;70.15;99536.83;1708610;83;21820;-62
2021/11/23 01:17:07;;;;;;;25.02;14.25;;;;;;;3.44;70.29;99540.66;1700457;83;21537;-63
2021/11/23 01:19:34;;;;;;;19.90;12.03;;;;;;;3.36;70.41;99539.15;1702128;83;21167;-63
2021/11/23 01:22:01;;;;;;;30.20;15.75;;;;;;;3.32;70.38;99542.13;1701095;83;21076;-63
2021/11/23 01:24:27;;;;;;;30.95;15.72;;;;;;;3.33;70.33;99546.44;1707801;83;21055;-60
2021/11/23 01:26:54;;;;;;;30.05;15.78;;;;;;;3.32;70.47;99541.65;1701911;83;20947;-64
2021/11/23 01:29:20;;;;;;;27.13;15.25;;;;;;;3.36;70.54;99538.30;1709572;83;21524;-62
2021/11/23 01:31:47;;;;;;;27.02;15.72;;;;;;;3.39;70.86;99537.56;1691708;83;21155;-61
2021/11/23 01:34:19;;;;;;;28.65;15.63;;;;;;;3.45;71.06;99530.97;1705694;83;20955;-61
2021/11/23 01:36:43;;;;;;;38.80;16.87;;;;;;;3.43;71.21;99531.11;1702642;83;20947;-63
2021/11/23 01:39:09;;;;;;;30.72;15.85;;;;;;;3.41;71.39;99533.03;1703604;83;21385;-63
2021/11/23 01:41:36;;;;;;;22.85;12.70;;;;;;;3.41;71.40;99532.19;1702514;83;21102;-64
2021/11/23 01:44:04;;;;;;;22.20;12.93;;;;;;;3.31;71.68;99529.45;1696579;83;21975;-62
2021/11/23 01:46:31;;;;;;;19.87;12.25;;;;;;;3.25;71.77;99528.64;1692454;83;21509;-60
2021/11/23 01:48:58;;;;;;;20.20;13.90;;;;;;;3.21;71.89;99527.71;1703223;83;20993;-63
2021/11/23 01:51:24;;;;;;;27.45;13.72;;;;;;;3.17;72.03;99524.48;1704092;83;21013;-63
2021/11/23 01:53:53;;;;;;;22.58;13.60;;;;;;;3.12;72.30;99524.02;1685153;83;20994;-61
2021/11/23 01:56:19;;;;;;;20.72;13.45;;;;;;;3.19;72.44;99538.80;1709304;83;21146;-61
2021/11/23 01:58:46;;;;;;;15.90;11.78;;;;;;;3.12;72.31;99542.41;1693889;83;21055;-60
2021/11/23 02:01:12;;;;;;;19.98;12.25;;;;;;;3.05;72.57;99559.64;1702208;83;20985;-61
2021/11/23 02:03:40;;;;;;;14.63;11.10;;;;;;;2.97;72.89;99549.70;1710005;83;21123;-63
2021/11/23 02:06:07;;;;;;;14.33;11.00;;;;;;;2.87;73.17;99562.36;1699341;83;20995;-62
2021/11/23 02:08:34;;;;;;;16.30;10.28;;;;;;;2.81;73.50;99553.66;1749131;81;21150;-63
2021/11/23 02:11:01;;;;;;;15.35;10.28;;;;;;;2.76;74.01;99559.29;1754100;81;20998;-61
2021/11/23 02:13:29;;;;;;;13.05;10.13;;;;;;;2.77;74.43;99561.41;1746262;81;22071;-60
2021/11/23 02:15:57;;;;;;;10.85;9.30;;;;;;;2.81;74.62;99554.51;1749052;81;20931;-61
2021/11/23 02:18:26;;;;;;;14.63;9.33;;;;;;;2.82;75.03;99548.28;1753467;81;20919;-63
2021/11/23 02:20:53;;;;;;;10.08;8.55;;;;;;;2.92;75.08;99552.36;1753323;81;21163;-63
2021/11/23 02:23:20;;;;;;;11.68;8.95;;;;;;;2.97;75.23;99555.46;1749568;81;20948;-62
2021/11/23 02:25:47;;;;;;;15.32;8.55;;;;;;;3.00;75.36;99549.94;1764156;81;20974;-60
2021/11/23 02:28:13;;;;;;;13.22;9.65;;;;;;;3.04;75.48;99548.28;1742158;81;20998;-63
2021/11/23 02:30:49;;;;;;;10.98;9.80;;;;;;;3.07;75.37;99549.83;1756783;81;21471;-61
2021/11/23 02:33:18;;;;;;;12.35;9.88;;;;;;;3.09;75.24;99547.91;1760156;81;21136;-63
2021/11/23 02:35:45;;;;;;;12.10;8.95;;;;;;;3.00;74.94;99547.30;1763159;81;20939;-63
2021/11/23 02:38:12;;;;;;;14.70;10.55;;;;;;;2.93;75.12;99546.97;1760197;81;21568;-64
2021/11/23 02:40:38;;;;;;;17.00;10.93;;;;;;;2.93;75.19;99550.07;1756483;80;21026;-62
2021/11/23 02:43:05;;;;;;;12.88;9.83;;;;;;;2.94;75.16;99554.38;1759225;81;21022;-64
2021/11/23 02:45:32;;;;;;;12.50;8.85;;;;;;;2.88;75.22;99550.91;1748944;81;21157;-62
2021/11/23 02:48:00;;;;;;;12.18;9.08;;;;;;;2.85;75.41;99549.83;1762965;81;21003;-64
2021/11/23 02:50:28;;;;;;;11.93;9.40;;;;;;;2.86;75.61;99551.04;1756992;80;20939;-64
2021/11/23 02:52:55;;;;;;;12.47;9.55;;;;;;;2.90;75.80;99558.19;1752029;81;20988;-64
2021/11/23 02:55:24;;;;;;;13.22;9.70;;;;;;;2.94;75.78;99550.44;1752864;81;21075;-63
2021/11/23 02:57:51;;;;;;;15.38;9.35;;;;;;;2.96;75.78;99546.73;1748104;81;21157;-62
2021/11/23 03:00:22;;;;;;;11.03;9.08;;;;;;;2.95;75.93;99548.98;1755602;81;21044;-62
2021/11/23 03:02:50;;;;;;;11.20;9.18;;;;;;;3.04;76.02;99544.34;1754599;81;20889;-64
2021/11/23 03:05:19;;;;;;;10.32;8.53;;;;;;;3.12;75.95;99542.41;1760188;81;21005;-63
2021/11/23 03:07:47;;;;;;;10.00;8.30;;;;;;;3.23;75.91;99539.77;1750000;80;20954;-62
2021/11/23 03:10:14;;;;;;;11.05;8.40;;;;;;;3.33;75.77;99539.39;1751359;81;21494;-62
2021/11/23 03:12:41;;;;;;;10.13;7.97;;;;;;;3.40;75.53;99543.19;1746828;81;20991;-65
2021/11/23 03:15:09;;;;;;;10.40;7.62;;;;;;;3.36;75.50;99540.94;1745221;81;20895;-63
2021/11/23 03:17:36;;;;;;;7.55;6.17;;;;;;;3.37;75.45;99532.06;1757047;81;20955;-62
2021/11/23 03:20:06;;;;;;;7.95;5.78;;;;;;;3.49;75.29;99526.68;1761538;81;20945;-61
2021/11/23 03:22:34;;;;;;;8.03;6.40;;;;;;;3.60;75.12;99526.62;1767877;81;20868;-63
2021/11/23 03:25:03;;;;;;;5.45;4.85;;;;;;;3.73;74.92;99521.18;1760307;81;20966;-61
2021/11/23 03:27:30;;;;;;;6.97;5.53;;;;;;;3.81;74.75;99524.52;1756558;81;20888;-63
2021/11/23 03:29:56;;;;;;;6.53;5.37;;;;;;;3.91;74.55;99525.43;1751742;81;21028;-64
2021/11/23 03:32:23;;;;;;;7.30;5.53;;;;;;;3.96;74.35;99525.88;1765002;81;20920;-61
2021/11/23 03:34:50;;;;;;;6.67;5.47;;;;;;;3.97;74.28;99528.84;1746829;81;21150;-63
2021/11/23 03:37:23;;;;;;;7.22;5.20;;;;;;;3.99;74.15;99529.08;1757100;81;20963;-63
2021/11/23 03:39:51;;;;;;;5.17;4.53;;;;;;;3.96;73.97;99531.98;1755736;81;20923;-61
2021/11/23 03:42:20;;;;;;;7.15;5.05;;;;;;;3.94;74.16;99529.94;1758903;81;21029;-62
2021/11/23 03:44:46;;;;;;;7.35;5.83;;;;;;;4.05;74.00;99525.09;1740973;81;21004;-63
2021/11/23 03:47:14;;;;;;;10.05;6.30;;;;;;;4.02;73.81;99527.98;1756337;81;21138;-61
2021/11/23 03:49:42;;;;;;;9.90;7.25;;;;;;;3.97;73.71;99528.84;1751362;81;20951;-62
2021/11/23 03:52:09;;;;;;;9.58;7.12;;;;;;;3.92;73.95;99531.03;1760336;81;21568;-61
2021/11/23 03:54:36;;;;;;;11.28;6.65;;;;;;;3.93;74.05;99532.23;1761214;81;20984;-62
2021/11/23 03:57:05;;;;;;;7.78;6.42;;;;;;;3.95;74.07;99534.25;1755577;81;20915;-62
2021/11/23 03:59:31;;;;;;;7.97;6.50;;;;;;;3.91;74.15;99535.95;1760088;81;21801;-62
2021/11/23 04:01:58;;;;;;;7.42;5.90;;;;;;;3.98;74.09;99534.48;1746642;81;21500;-63
2021/11/23 04:04:24;;;;;;;10.20;6.03;;;;;;;4.04;73.84;99535.30;1744472;81;21031;-61
2021/11/23 04:06:51;;;;;;;7.40;6.28;;;;;;;4.07;73.63;99533.22;1753446;81;21002;-63
2021/11/23 04:09:18;;;;;;;7.42;5.45;;;;;;;4.18;73.07;99538.91;1757480;81;20951;-61
2021/11/23 04:11:44;;;;;;;6.78;5.25;;;;;;;4.14;73.23;99537.52;1755989;81;21793;-61
2021/11/23 04:14:11;;;;;;;7.37;5.25;;;;;;;4.14;73.54;99535.72;1752637;81;21466;-61
2021/11/23 04:16:37;;;;;;;6.42;5.20;;;;;;;4.18;73.48;99537.12;1734278;81;20880;-64
2021/11/23 04:19:05;;;;;;;5.70;4.33;;;;;;;4.13;73.57;99534.52;1748260;81;20939;-61
2021/11/23 04:21:32;;;;;;;5.75;4.80;;;;;;;4.12;73.68;99536.81;1751893;81;20915;-64
2021/11/23 04:23:59;;;;;;;7.50;5.50;;;;;;;4.19;73.75;99536.16;1759490;81;21112;-62
2021/11/23 04:26:27;;;;;;;8.25;6.08;;;;;;;4.28;73.38;99539.80;1763637;81;21061;-63
2021/11/23 04:28:54;;;;;;;7.25;5.67;;;;;;;4.31;73.31;99542.19;1739413;80;21094;-62
2021/11/23 04:31:20;;;;;;;9.90;7.47;;;;;;;4.35;73.21;99531.25;1750146;81;21010;-64
2021/11/23 04:33:46;;;;;;;8.45;7.47;;;;;;;4.41;72.99;99533.05;1756202;81;20907;-63
2021/11/23 04:36:13;;;;;;;9.28;7.37;;;;;;;4.44;72.74;99528.80;1760987;81;21065;-62
2021/11/23 04:38:39;;;;;;;9.00;8.03;;;;;;;4.46;72.56;99525.58;1764096;81;21003;-64
2021/11/23 04:41:06;;;;;;;10.03;8.40;;;;;;;4.38;72.32;99524.89;1760086;81;22313;-63
2021/11/23 04:43:32;;;;;;;10.23;8.20;;;;;;;4.35;72.25;99523.34;1749185;81;20940;-61
2021/11/23 04:45:59;;;;;;;9.23;7.72;;;;;;;4.31;72.45;99521.11;1756092;81;20947;-62
2021/11/23 04:48:26;;;;;;;10.20;8.65;;;;;;;4.34;72.43;99520.86;1760560;81;21142;-63
2021/11/23 04:50:52;;;;;;;10.48;8.33;;;;;;;4.34;72.47;99523.02;1747505;80;20852;-61
2021/11/23 04:53:19;;;;;;;8.50;7.22;;;;;;;4.40;72.32;99512.45;1758966;81;20979;-62
2021/11/23 04:55:46;;;;;;;8.33;7.12;;;;;;;4.33;72.26;99515.22;1749766;81;21050;-63
2021/11/23 04:58:13;;;;;;;9.53;7.37;;;;;;;4.31;72.31;99517.16;1745412;81;20918;-60
2021/11/23 05:00:39;;;;;;;7.97;6.37;;;;;;;4.27;72.37;99517.92;1751363;81;21943;-66
2021/11/23 05:03:06;;;;;;;7.90;6.30;;;;;;;4.28;72.43;99526.16;1679640;83;20984;-64
2021/11/23 05:05:33;;;;;;;11.35;6.20;;;;;;;4.30;72.49;99524.22;1707686;83;21003;-65
2021/11/23 05:08:00;;;;;;;6.60;5.75;;;;;;;4.28;72.45;99526.63;1708785;81;20953;-64
2021/11/23 05:10:26;;;;;;;9.40;6.33;;;;;;;4.20;72.60;99519.86;1721008;81;20974;-62
2021/11/23 05:12:53;;;;;;;8.60;6.62;;;;;;;4.21;72.69;99516.27;1706404;81;21133;-63
2021/11/23 05:15:19;;;;;;;8.53;6.47;;;;;;;4.20;72.88;99506.22;1703940;81;21493;-61
2021/11/23 05:17:47;;;;;;;6.37;5.62;;;;;;;4.26;72.86;99483.33;1718794;83;21551;-63
2021/11/23 05:20:13;;;;;;;9.23;6.03;;;;;;;4.33;72.75;99491.52;1717460;81;20903;-63
2021/11/23 05:22:40;;;;;;;6.85;6.03;;;;;;;4.37;72.60;99500.84;1708754;83;20887;-69
2021/11/23 05:25:09;;;;;;;10.78;6.90;;;;;;;4.37;72.39;99502.16;1721382;81;21124;-64
2021/11/23 05:27:35;;;;;;;10.93;7.75;;;;;;;4.31;72.46;99500.88;1717363;83;20979;-60
2021/11/23 05:30:04;;;;;;;16.45;7.92;;;;;;;4.33;72.47;99512.59;1711311;81;20883;-65
2021/11/23 05:32:30;;;;;;;10.78;8.20;;;;;;;4.35;72.26;99511.50;1712461;81;20983;-69
2021/11/23 05:34:57;;;;;;;12.28;9.43;;;;;;;4.34;72.22;99505.05;1714318;81;21597;-71
2021/11/23 05:37:23;;;;;;;13.15;9.85;;;;;;;4.36;72.35;99518.45;1710403;81;21556;-67
2021/11/23 05:39:50;;;;;;;11.03;8.95;;;;;;;4.49;72.19;99517.39;1715421;82;20974;-65
2021/11/23 05:42:17;;;;;;;10.63;8.03;;;;;;;4.63;71.94;99514.42;1708666;81;20991;-62
2021/11/23 05:44:44;;;;;;;12.07;8.78;;;;;;;4.71;71.81;99526.45;1710656;81;21430;-59
2021/11/23 05:47:10;;;;;;;19.70;12.07;;;;;;;4.72;71.76;99523.68;1718822;81;21050;-68
2021/11/23 05:49:37;;;;;;;11.95;9.63;;;;;;;4.75;71.72;99532.64;1705304;81;21160;-64
2021/11/23 05:52:04;;;;;;;10.15;8.80;;;;;;;4.81;71.60;99527.33;1704484;83;20919;-65
2021/11/23 05:54:32;;;;;;;11.63;9.20;;;;;;;4.89;71.34;99530.98;1721099;81;20967;-66
2021/11/23 05:56:59;;;;;;;12.13;10.08;;;;;;;4.96;71.08;99537.86;1705990;81;20986;-64
2021/11/23 05:59:26;;;;;;;15.15;10.03;;;;;;;4.96;71.03;99536.53;1707715;83;20982;-62
2021/11/23 06:01:52;;;;;;;11.30;9.25;;;;;;;4.97;71.01;99539.06;1727710;80;23317;-65
2021/11/23 06:04:19;;;;;;;12.53;8.45;;;;;;;5.06;70.82;99540.55;1773912;80;20970;-66
2021/11/23 06:06:46;;;;;;;10.65;8.65;;;;;;;5.08;70.82;99539.44;1762818;80;21003;-66
2021/11/23 06:09:13;;;;;;;23.30;15.48;;;;;;;5.13;70.69;99542.51;1752720;80;21443;-63
2021/11/23 06:11:39;;;;;;;47.40;25.43;;;;;;;5.18;70.50;99541.62;1770707;80;20895;-65
2021/11/23 06:14:06;;;;;;;115.82;44.90;;;;;;;5.21;70.35;99546.63;1754804;80;21098;-65
2021/11/23 06:16:34;;;;;;;176.78;59.50;;;;;;;5.27;70.33;99547.39;1765533;80;20915;-65
2021/11/23 06:19:01;;;;;;;123.18;45.38;;;;;;;5.18;70.03;99553.97;1766439;80;20871;-65
2021/11/23 06:21:28;;;;;;;66.80;26.62;;;;;;;5.02;70.51;99553.16;1751643;80;20983;-66
2021/11/23 06:23:54;;;;;;;33.63;16.80;;;;;;;4.93;70.67;99560.05;1768392;80;21077;-66
2021/11/23 06:26:21;;;;;;;18.45;13.38;;;;;;;4.88;71.01;99558.30;1762963;80;21784;-67
2021/11/23 06:28:47;;;;;;;17.65;14.13;;;;;;;4.86;71.07;99564.19;1770283;80;21465;-63
2021/11/23 06:31:14;;;;;;;17.67;13.22;;;;;;;4.83;71.23;99560.97;1752499;80;21537;-66
2021/11/23 06:33:40;;;;;;;18.05;13.05;;;;;;;4.85;71.31;99557.71;1761649;80;20997;-67
2021/11/23 06:36:07;;;;;;;16.70;12.40;;;;;;;4.91;71.26;99555.40;1766945;80;20978;-64
2021/11/23 06:38:34;;;;;;;13.95;10.50;;;;;;;4.91;71.00;99552.77;1752812;80;21155;-69
2021/11/23 06:41:01;;;;;;;14.10;9.75;;;;;;;4.86;70.87;99561.55;1760774;80;20920;-75
2021/11/23 06:43:27;;;;;;;11.85;9.08;;;;;;;4.75;71.00;99566.91;1766372;80;21019;-70
2021/11/23 06:45:55;;;;;;;15.83;11.20;;;;;;;4.66;71.40;99561.59;1763438;80;20955;-70
2021/11/23 06:48:22;;;;;;;16.05;11.63;;;;;;;4.64;71.95;99560.90;1763971;80;20971;-67
2021/11/23 06:50:48;;;;;;;12.98;9.70;;;;;;;4.61;71.91;99560.68;1768192;80;21163;-67
2021/11/23 06:53:15;;;;;;;16.87;10.40;;;;;;;4.56;72.31;99569.46;1761617;80;21696;-66
2021/11/23 06:55:43;;;;;;;24.67;15.38;;;;;;;4.59;72.70;99567.05;1759459;80;20844;-67
2021/11/23 06:58:11;;;;;;;19.17;12.37;;;;;;;4.52;72.94;99560.60;1767823;80;21026;-66
2021/11/23 07:00:38;;;;;;;15.45;10.65;;;;;;;4.48;73.43;99558.73;1766194;80;21489;-67
2021/11/23 07:03:05;;;;;;;13.50;11.00;;;;;;;4.50;73.59;99550.69;1756333;80;21162;-67
2021/11/23 07:05:31;;;;;;;18.65;12.63;;;;;;;4.48;73.55;99549.52;1766717;81;20943;-68
2021/11/23 07:07:58;;;;;;;22.45;15.18;;;;;;;4.42;73.71;99552.66;1748807;81;21046;-67
2021/11/23 07:10:25;;;;;;;18.05;12.95;;;;;;;4.34;74.04;99548.52;1757363;81;21017;-65
2021/11/23 07:12:52;;;;;;;20.68;13.03;;;;;;;4.36;74.32;99551.37;1749645;81;20903;-65
2021/11/23 07:15:19;;;;;;;14.63;12.15;;;;;;;4.45;74.48;99549.77;1768573;81;21209;-67
2021/11/23 07:17:46;;;;;;;16.05;12.98;;;;;;;4.52;74.50;99551.38;1762870;81;21013;-65
2021/11/23 07:20:13;;;;;;;18.92;14.23;;;;;;;4.50;74.71;99550.69;1693163;84;21104;-66
2021/11/23 07:22:39;;;;;;;24.55;15.65;;;;;;;4.56;74.82;99552.81;1690883;84;21061;-67
2021/11/23 07:25:09;;;;;;;24.77;15.25;;;;;;;4.67;74.71;99548.75;1759372;81;20975;-64
2021/11/23 07:27:35;;;;;;;26.90;15.70;;;;;;;4.77;74.50;99556.25;1757909;81;21807;-67
2021/11/23 07:30:03;;;;;;;23.52;16.00;;;;;;;4.72;74.37;99559.77;1760734;80;20892;-64
2021/11/23 07:32:31;;;;;;;26.35;16.70;;;;;;;4.66;74.49;99553.22;1759475;81;21038;-66
2021/11/23 07:34:58;;;;;;;24.85;18.00;;;;;;;4.73;74.58;99558.78;1764000;81;21054;-66
2021/11/23 07:37:27;;;;;;;28.17;17.10;;;;;;;4.71;74.47;99562.03;1760382;81;20860;-63
2021/11/23 07:39:53;;;;;;;31.42;18.48;;;;;;;4.76;74.37;99565.95;1723101;83;21493;-65
2021/11/23 07:42:19;;;;;;;26.65;16.90;;;;;;;4.73;74.42;99567.53;1722110;83;20952;-66
2021/11/23 07:44:46;;;;;;;27.98;16.60;;;;;;;4.78;74.29;99565.33;1693977;84;21046;-67
2021/11/23 07:47:13;;;;;;;24.82;17.07;;;;;;;4.88;74.18;99569.31;1687358;84;20971;-64
2021/11/23 07:49:40;;;;;;;23.40;17.25;;;;;;;4.93;74.07;99568.44;1759801;81;20987;-65
2021/11/23 07:52:06;;;;;;;26.45;18.30;;;;;;;4.98;73.60;99566.23;1759757;80;21140;-65
2021/11/23 07:54:33;;;;;;;23.70;16.80;;;;;;;4.92;73.79;99571.58;1758230;81;21509;-62
2021/11/23 07:57:00;;;;;;;24.05;15.30;;;;;;;4.92;73.69;99564.15;1765501;81;20984;-63
2021/11/23 07:59:26;;;;;;;25.23;17.30;;;;;;;4.96;73.62;99563.74;1754279;81;21018;-63
2021/11/23 08:01:52;;;;;;;23.42;17.20;;;;;;;5.00;73.65;99563.81;1760459;81;21018;-66
2021/11/23 08:04:19;;;;;;;25.45;16.50;;;;;;;4.99;73.34;99566.59;1761744;81;21273;-62
2021/11/23 08:06:47;;;;;;;22.93;16.65;;;;;;;4.98;73.35;99567.55;1762721;81;20982;-64
2021/11/23 08:09:14;;;;;;;24.43;18.27;;;;;;;4.98;73.11;99567.08;1758524;80;21096;-66
2021/11/23 08:11:42;;;;;;;20.30;15.75;;;;;;;4.94;73.26;99567.48;1763379;81;20903;-62
2021/11/23 08:14:09;;;;;;;31.40;16.40;;;;;;;4.98;73.23;99574.98;1763673;81;21476;-66
2021/11/23 08:16:37;;;;;;;19.70;15.55;;;;;;;4.95;73.17;99572.61;1761067;81;20971;-62
2021/11/23 08:19:03;;;;;;;19.95;14.18;;;;;;;4.96;73.34;99578.24;1764530;81;20840;-64
2021/11/23 08:21:30;;;;;;;19.42;14.45;;;;;;;4.98;73.28;99579.41;1755197;81;20939;-67
2021/11/23 08:23:58;;;;;;;19.67;14.00;;;;;;;5.01;73.38;99571.25;1695834;84;21014;-65
2021/11/23 08:26:26;;;;;;;16.73;13.78;;;;;;;5.09;73.27;99566.14;1692432;84;20940;-64
2021/11/23 08:28:52;;;;;;;21.75;14.53;;;;;;;5.12;73.21;99569.00;1760328;81;21155;-64
2021/11/23 08:31:20;;;;;;;21.25;14.47;;;;;;;5.20;73.32;99567.37;1760381;81;21006;-65
2021/11/23 08:33:47;;;;;;;18.57;13.83;;;;;;;5.32;73.15;99564.16;1764312;81;20967;-64
2021/11/23 08:36:13;;;;;;;18.45;14.15;;;;;;;5.48;72.94;99563.12;1760751;81;21085;-66
2021/11/23 08:38:40;;;;;;;19.45;14.28;;;;;;;5.58;72.30;99558.69;1759396;81;20974;-66
2021/11/23 08:41:07;;;;;;;19.40;14.65;;;;;;;5.64;71.95;99555.52;1763383;81;21926;-63
2021/11/23 08:43:34;;;;;;;20.37;15.20;;;;;;;5.66;71.59;99552.25;1759482;81;21489;-64
2021/11/23 08:46:00;;;;;;;21.85;16.52;;;;;;;5.69;71.25;99556.41;1757810;81;21007;-67
2021/11/23 08:48:27;;;;;;;22.07;16.45;;;;;;;5.68;71.20;99554.28;1764441;81;20986;-66
2021/11/23 08:50:53;;;;;;;20.77;16.45;;;;;;;5.73;71.22;99548.59;1758001;81;21065;-66
2021/11/23 08:53:20;;;;;;;23.70;16.00;;;;;;;5.79;71.05;99550.17;1760996;81;21043;-64
2021/11/23 08:55:47;;;;;;;24.07;16.35;;;;;;;5.84;71.03;99545.31;1755856;80;20974;-63
2021/11/23 08:58:15;;;;;;;19.85;16.15;;;;;;;5.90;70.61;99538.20;1760823;81;20978;-64
2021/11/23 09:00:44;;;;;;;21.48;16.10;;;;;;;5.90;70.52;99534.72;1750070;81;20943;-64
2021/11/23 09:03:11;;;;;;;19.32;14.85;;;;;;;5.86;70.07;99532.86;1756189;81;21477;-68
2021/11/23 09:05:39;;;;;;;18.27;15.20;;;;;;;5.88;70.14;99535.34;1757299;81;20951;-67
2021/11/23 09:08:06;;;;;;;20.37;15.75;;;;;;;5.94;69.90;99530.36;1758473;81;21349;-64
2021/11/23 09:10:36;;;;;;;17.52;15.53;;;;;;;5.92;69.85;99530.96;1754628;81;20935;-66
2021/11/23 09:13:03;;;;;;;21.17;15.80;;;;;;;5.90;69.58;99526.80;1758631;81;21059;-67
2021/11/23 09:15:30;;;;;;;21.70;14.90;;;;;;;5.90;69.42;99520.19;1764895;81;21006;-66
2021/11/23 09:18:00;;;;;;;21.35;15.68;;;;;;;5.91;69.47;99517.43;1760868;81;21162;-66
2021/11/23 09:20:32;;;;;;;20.75;15.85;;;;;;;5.91;69.44;99517.43;1757548;81;20982;-69
2021/11/23 09:22:54;;;;;;;21.10;17.17;;;;;;;5.99;69.55;99514.09;1759737;81;21044;-65
2021/11/23 09:25:22;;;;;;;26.05;18.87;;;;;;;6.16;69.53;99506.27;1758636;81;21041;-65
2021/11/23 09:27:49;;;;;;;24.85;18.73;;;;;;;6.33;69.04;99509.17;1764929;81;20998;-68
2021/11/23 09:30:15;;;;;;;22.95;17.87;;;;;;;6.46;68.76;99507.05;1750653;81;22016;-68
2021/11/23 09:32:43;;;;;;;19.25;14.95;;;;;;;6.48;67.71;99505.09;1748638;81;20952;-69
2021/11/23 09:35:13;;;;;;;23.47;17.98;;;;;;;6.47;66.70;99504.73;1755496;81;21517;-64
2021/11/23 09:37:38;;;;;;;29.23;19.55;;;;;;;6.40;66.57;99499.20;1758670;81;20999;-65
2021/11/23 09:40:07;;;;;;;28.70;18.45;;;;;;;6.47;66.21;99501.61;1755714;81;20954;-65
2021/11/23 09:42:34;;;;;;;25.10;17.32;;;;;;;6.44;65.79;99495.28;1746892;81;21153;-65
2021/11/23 09:45:03;;;;;;;15.25;12.45;;;;;;;6.44;66.02;99487.87;1752566;81;22224;-69
2021/11/23 09:47:29;;;;;;;17.55;12.80;;;;;;;6.42;65.32;99499.05;1767966;80;21071;-66
2021/11/23 09:50:01;;;;;;;15.58;11.75;;;;;;;6.39;65.42;99490.92;1752935;81;20954;-66
2021/11/23 09:52:27;;;;;;;15.60;12.43;;;;;;;6.49;65.09;99484.30;1757220;81;20995;-64
2021/11/23 09:54:54;;;;;;;14.90;11.80;;;;;;;6.55;64.57;99483.22;1745355;81;21199;-63
2021/11/23 09:57:21;;;;;;;16.80;12.50;;;;;;;6.54;64.70;99471.48;1768772;81;21380;-65
2021/11/23 09:59:47;;;;;;;15.38;11.73;;;;;;;6.55;64.86;99468.69;1759182;81;20947;-63
2021/11/23 10:02:27;;;;;;;12.82;10.68;;;;;;;6.52;64.07;99470.29;1719796;83;21383;-66
2021/11/23 10:05:04;;;;;;;12.07;10.80;;;;;;;6.52;63.65;99466.80;1694752;84;21023;-62
2021/11/23 10:07:43;;;;;;;12.55;10.40;;;;;;;6.55;63.24;99463.88;1719223;82;21153;-61
2021/11/23 10:10:23;;;;;;;13.25;10.65;;;;;;;6.55;62.79;99462.55;1700257;84;20912;-62
2021/11/23 10:12:58;;;;;;;13.85;11.15;;;;;;;6.60;62.81;99453.70;1695699;84;21497;-63
2021/11/23 10:15:34;;;;;;;13.95;12.13;;;;;;;6.60;62.82;99446.61;1716448;83;21022;-62
2021/11/23 10:18:14;;;;;;;17.32;13.83;;;;;;;6.64;62.67;99449.80;1713420;82;21058;-63
2021/11/23 10:20:50;;;;;;;18.23;14.07;;;;;;;6.62;62.71;99453.09;1707659;83;21265;-61
2021/11/23 10:23:36;;;;;;;15.63;14.05;;;;;;;6.53;62.66;99441.57;1710429;81;21606;-62
2021/11/23 10:26:14;;;;;;;16.57;13.30;;;;;;;6.42;63.08;99439.11;1695663;84;20935;-62
2021/11/23 10:28:49;;;;;;;16.17;13.13;;;;;;;6.37;63.31;99445.80;1685449;84;21070;-62
2021/11/23 10:31:15;;;;;;;15.20;13.38;;;;;;;6.31;64.44;99455.64;1688152;84;20938;-62
2021/11/23 10:33:43;;;;;;;18.62;13.30;;;;;;;6.38;64.91;99452.76;1710632;83;21166;-62
2021/11/23 10:36:15;;;;;;;14.70;12.43;;;;;;;6.53;65.17;99450.83;1710976;81;21693;-62
2021/11/23 10:38:44;;;;;;;16.95;12.90;;;;;;;6.64;64.84;99449.80;1707840;81;20998;-63
2021/11/23 10:41:13;;;;;;;15.20;12.35;;;;;;;6.64;63.77;99441.39;1714221;83;20990;-60
2021/11/23 10:43:41;;;;;;;15.45;11.65;;;;;;;6.59;63.46;99435.72;1714455;81;20950;-60
2021/11/23 10:46:16;;;;;;;12.40;11.12;;;;;;;6.59;62.86;99429.59;1690253;83;21159;-57
2021/11/23 10:48:58;;;;;;;31.40;18.23;;;;;;;6.60;62.02;99429.91;1712524;83;21512;-59
2021/11/23 10:51:26;;;;;;;21.30;14.83;;;;;;;6.50;61.79;99422.52;1713321;81;20930;-59
2021/11/23 10:53:53;;;;;;;21.68;16.05;;;;;;;6.47;63.02;99422.80;1693448;84;20924;-64
2021/11/23 10:56:20;;;;;;;18.20;13.78;;;;;;;6.52;62.14;99432.45;1663180;83;21162;-61
2021/11/23 10:58:48;;;;;;;20.23;15.38;;;;;;;6.51;62.17;99434.28;1713747;82;21097;-61
2021/11/23 11:01:17;;;;;;;24.02;15.95;;;;;;;6.44;61.50;99423.93;1719531;83;20978;-61
2021/11/23 11:03:44;;;;;;;19.25;14.33;;;;;;;6.39;61.42;99412.16;1714016;83;20880;-62
2021/11/23 11:06:11;;;;;;;16.17;13.28;;;;;;;6.25;61.64;99417.90;1706116;83;20987;-66
2021/11/23 11:08:43;;;;;;;11.28;10.13;;;;;;;6.17;61.70;99415.50;1742045;81;21073;-64
2021/11/23 11:11:20;;;;;;;10.35;9.25;;;;;;;6.16;61.87;99406.37;1766547;81;21162;-64
2021/11/23 11:13:49;;;;;;;11.53;9.55;;;;;;;6.12;61.33;99401.05;1751873;80;20936;-59
2021/11/23 11:16:17;;;;;;;36.63;10.75;;;;;;;6.10;61.38;99385.84;1746875;81;20934;-58
2021/11/23 11:19:06;;;;;;;18.32;10.75;;;;;;;6.17;62.21;99386.92;1755149;81;21077;-63
2021/11/23 11:21:51;;;;;;;13.93;11.83;;;;;;;6.20;62.19;99394.05;1746595;81;20955;-63
2021/11/23 11:27:11;;;;;;;12.30;10.50;;;;;;;6.26;61.56;99369.38;1741306;81;21039;-64
2021/11/23 11:29:29;;;;;;;13.48;8.93;;;;;;;6.26;61.37;99370.19;1756699;80;21048;-60
2021/11/23 11:31:59;;;;;;;10.60;8.95;;;;;;;6.37;62.53;99373.97;1743741;81;20899;-65
2021/11/23 11:34:28;;;;;;;12.37;9.35;;;;;;;6.43;61.87;99375.20;1756634;81;21555;-68